createdAt,value
2019-03-13T00:02:43.715Z,18.00
2019-03-13T00:05:24.943Z,18.00
2019-03-13T00:08:05.230Z,18.00
2019-03-13T00:10:51.059Z,18.10
2019-03-13T00:13:35.447Z,18.20
2019-03-13T00:16:18.749Z,18.20
2019-03-13T00:19:00.251Z,18.20
2019-03-13T00:21:49.053Z,18.20
2019-03-13T00:24:30.315Z,18.30
2019-03-13T00:27:11.474Z,18.50
2019-03-13T00:29:51.461Z,18.50
2019-03-13T00:32:33.157Z,18.50
2019-03-13T00:35:18.551Z,18.40
2019-03-13T00:38:00.509Z,18.40
2019-03-13T00:40:44.416Z,18.30
2019-03-13T00:43:24.752Z,18.20
2019-03-13T00:46:07.293Z,18.20
2019-03-13T00:48:51.394Z,18.20
2019-03-13T00:51:31.021Z,18.20
2019-03-13T00:54:13.226Z,18.40
2019-03-13T00:56:56.495Z,18.50
2019-03-13T00:59:42.965Z,18.40
2019-03-13T01:02:40.893Z,18.60
2019-03-13T01:05:26.906Z,18.70
2019-03-13T01:08:07.553Z,18.60
2019-03-13T01:10:49.880Z,18.60
2019-03-13T01:13:34.195Z,18.60
2019-03-13T01:16:18.441Z,18.50
2019-03-13T01:18:59.273Z,18.50
2019-03-13T01:21:42.329Z,18.60
2019-03-13T01:24:31.146Z,18.70
2019-03-13T01:27:36.345Z,18.70
2019-03-13T01:30:25.331Z,18.70
2019-03-13T01:33:14.187Z,18.60
2019-03-13T01:36:06.093Z,18.60
2019-03-13T01:38:50.042Z,18.50
2019-03-13T01:41:30.194Z,18.70
2019-03-13T01:44:14.614Z,18.60
2019-03-13T01:46:54.979Z,18.70
2019-03-13T01:49:42.641Z,18.70
2019-03-13T01:52:23.649Z,18.70
2019-03-13T01:55:08.348Z,18.70
2019-03-13T01:57:48.457Z,18.60
2019-03-13T02:00:32.607Z,18.60
2019-03-13T02:03:14.095Z,19.00
2019-03-13T02:06:07.998Z,19.20
2019-03-13T02:08:53.557Z,19.00
2019-03-13T02:11:42.000Z,19.10
2019-03-13T02:14:34.405Z,19.00
2019-03-13T02:17:30.909Z,19.10
2019-03-13T02:20:12.898Z,19.00
2019-03-13T02:22:57.988Z,18.90
2019-03-13T02:25:49.812Z,18.90
2019-03-13T02:28:38.126Z,18.80
2019-03-13T02:31:23.421Z,18.80
2019-03-13T02:34:10.063Z,18.80
2019-03-13T02:37:04.980Z,18.80
2019-03-13T02:39:56.631Z,18.70
2019-03-13T02:42:43.267Z,18.60
2019-03-13T02:45:22.881Z,18.70
2019-03-13T02:48:04.189Z,18.80
2019-03-13T02:50:53.301Z,18.90
2019-03-13T02:53:37.319Z,19.00
2019-03-13T02:56:31.068Z,19.00
2019-03-13T02:59:17.171Z,19.10
2019-03-13T03:02:34.071Z,19.00
2019-03-13T03:05:23.553Z,18.90
2019-03-13T03:08:07.959Z,18.90
2019-03-13T03:10:50.323Z,18.90
2019-03-13T03:13:33.025Z,18.90
2019-03-13T03:16:14.951Z,19.20
2019-03-13T03:18:56.344Z,19.30
2019-03-13T03:21:42.025Z,19.30
2019-03-13T03:24:24.035Z,19.30
2019-03-13T03:27:10.391Z,19.20
2019-03-13T03:29:58.963Z,19.20
2019-03-13T03:32:42.367Z,19.20
2019-03-13T03:35:28.799Z,19.10
2019-03-13T03:38:11.982Z,19.00
2019-03-13T03:40:57.317Z,19.10
2019-03-13T03:43:45.218Z,19.10
2019-03-13T03:46:32.281Z,19.50
2019-03-13T03:49:26.532Z,19.40
2019-03-13T03:52:04.977Z,19.30
2019-03-13T03:54:50.232Z,19.20
2019-03-13T03:57:31.685Z,19.20
2019-03-13T04:00:12.542Z,19.40
2019-03-13T04:02:56.325Z,19.30
2019-03-13T04:05:46.523Z,19.20
2019-03-13T04:08:37.447Z,19.10
2019-03-13T04:11:16.949Z,19.00
2019-03-13T04:14:01.957Z,18.90
2019-03-13T04:16:46.919Z,19.00
2019-03-13T04:19:33.076Z,19.10
2019-03-13T04:22:20.780Z,19.00
2019-03-13T04:25:10.648Z,19.10
2019-03-13T04:28:04.737Z,19.00
2019-03-13T04:30:54.739Z,19.10
2019-03-13T04:33:47.858Z,19.10
2019-03-13T04:36:33.210Z,19.10
2019-03-13T04:39:28.498Z,19.10
2019-03-13T04:42:23.982Z,19.20
2019-03-13T04:45:09.494Z,19.20
2019-03-13T04:48:04.703Z,19.30
2019-03-13T04:50:51.055Z,19.20
2019-03-13T04:53:44.677Z,19.30
2019-03-13T04:56:32.218Z,19.30
2019-03-13T04:59:16.330Z,19.40
2019-03-13T05:02:04.639Z,19.40
2019-03-13T05:04:58.140Z,19.40
2019-03-13T05:07:45.189Z,19.40
2019-03-13T05:10:35.177Z,19.30
2019-03-13T05:13:22.036Z,19.30
2019-03-13T05:16:27.622Z,19.20
2019-03-13T05:19:29.747Z,19.20
2019-03-13T05:22:13.243Z,19.20
2019-03-13T05:25:01.352Z,19.20
2019-03-13T05:27:53.357Z,19.10
2019-03-13T05:30:57.021Z,19.10
2019-03-13T05:33:47.508Z,19.00
2019-03-13T05:36:34.059Z,19.10
2019-03-13T05:39:26.443Z,19.10
2019-03-13T05:42:17.539Z,19.10
2019-03-13T05:45:12.233Z,19.00
2019-03-13T05:48:07.572Z,18.90
2019-03-13T05:50:58.910Z,19.00
2019-03-13T05:53:54.167Z,19.00
2019-03-13T05:56:40.679Z,19.00
2019-03-13T05:59:27.870Z,19.00
2019-03-13T06:02:19.759Z,19.00
2019-03-13T06:05:18.771Z,18.90
2019-03-13T06:08:19.409Z,19.00
2019-03-13T06:11:06.506Z,19.00
2019-03-13T06:13:50.023Z,19.10
2019-03-13T06:16:39.452Z,19.00
2019-03-13T06:19:21.481Z,19.00
2019-03-13T06:22:11.157Z,18.90
2019-03-13T06:24:56.330Z,18.90
2019-03-13T06:27:58.522Z,18.90
2019-03-13T06:30:44.222Z,18.90
2019-03-13T06:33:25.235Z,19.00
2019-03-13T06:36:13.204Z,19.00
2019-03-13T06:38:57.226Z,19.10
2019-03-13T06:42:00.401Z,19.20
2019-03-13T06:44:50.864Z,19.20
2019-03-13T06:47:37.910Z,19.20
2019-03-13T06:50:26.171Z,19.10
2019-03-13T06:53:29.760Z,19.50
2019-03-13T06:56:12.007Z,19.30
2019-03-13T06:59:15.894Z,19.30
2019-03-13T07:02:31.410Z,19.20
2019-03-13T07:05:37.205Z,19.30
2019-03-13T07:08:38.051Z,19.20
2019-03-13T07:11:44.196Z,19.20
2019-03-13T07:14:48.638Z,19.10
2019-03-13T07:17:45.608Z,19.20
2019-03-13T07:20:59.962Z,19.10
2019-03-13T07:24:04.405Z,19.00
2019-03-13T07:27:31.662Z,19.00
2019-03-13T07:30:32.519Z,19.10
2019-03-13T07:33:35.401Z,19.00
2019-03-13T07:36:31.426Z,19.00
2019-03-13T07:39:47.011Z,19.00
2019-03-13T07:42:56.222Z,19.00
2019-03-13T07:45:59.168Z,18.90
2019-03-13T07:48:57.260Z,18.90
2019-03-13T07:52:02.998Z,18.90
2019-03-13T07:54:55.745Z,18.90
2019-03-13T07:58:04.034Z,19.00
2019-03-13T08:01:03.487Z,19.00
2019-03-13T08:04:10.134Z,19.00
2019-03-13T08:07:16.181Z,18.90
2019-03-13T08:10:31.960Z,19.00
2019-03-13T08:17:05.248Z,19.00
2019-03-13T08:20:08.989Z,19.00
2019-03-13T08:23:13.619Z,18.90
2019-03-13T08:26:16.849Z,18.80
2019-03-13T08:29:51.121Z,18.80
2019-03-13T08:33:06.310Z,18.70
2019-03-13T08:36:09.979Z,18.80
2019-03-13T08:39:14.409Z,18.80
2019-03-13T08:42:22.148Z,18.80
2019-03-13T08:45:20.109Z,18.90
2019-03-13T08:48:12.002Z,19.20
2019-03-13T08:51:26.248Z,19.00
2019-03-13T08:54:29.472Z,18.90
2019-03-13T08:57:44.884Z,18.90
2019-03-13T09:00:59.276Z,18.90
2019-03-13T09:03:53.772Z,18.90
2019-03-13T09:06:55.873Z,18.80
2019-03-13T09:09:52.376Z,18.90
2019-03-13T09:12:48.436Z,18.90
2019-03-13T09:15:52.178Z,18.90
2019-03-13T09:18:45.365Z,18.90
2019-03-13T09:21:51.133Z,18.90
2019-03-13T09:25:10.391Z,19.10
2019-03-13T09:28:01.302Z,18.90
2019-03-13T09:30:54.854Z,18.80
2019-03-13T09:33:50.345Z,18.80
2019-03-13T09:36:55.429Z,18.70
2019-03-13T09:43:10.972Z,18.70
2019-03-13T09:46:24.577Z,18.70
2019-03-13T09:49:59.046Z,18.70
2019-03-13T09:56:06.231Z,18.60
2019-03-13T09:59:10.796Z,18.60
2019-03-13T10:02:24.926Z,18.60
2019-03-13T10:05:26.931Z,18.70
2019-03-13T10:08:26.718Z,18.80
2019-03-13T10:11:31.647Z,18.70
2019-03-13T10:14:26.821Z,18.70
2019-03-13T10:17:16.046Z,18.70
2019-03-13T10:20:28.382Z,18.80
2019-03-13T10:23:31.008Z,18.70
2019-03-13T10:26:29.211Z,18.80
2019-03-13T10:29:34.988Z,18.70
2019-03-13T10:32:37.560Z,18.60
2019-03-13T10:35:25.566Z,18.70
2019-03-13T10:38:45.778Z,18.80
2019-03-13T10:41:44.111Z,18.70
2019-03-13T10:44:42.552Z,18.80
2019-03-13T10:47:57.014Z,18.80
2019-03-13T10:50:56.972Z,18.70
2019-03-13T10:54:07.371Z,18.70
2019-03-13T10:57:16.155Z,18.70
2019-03-13T11:00:11.640Z,18.60
2019-03-13T11:03:18.312Z,18.60
2019-03-13T11:06:39.746Z,18.60
2019-03-13T11:09:35.555Z,18.50
2019-03-13T11:12:43.278Z,18.50
2019-03-13T11:15:49.902Z,18.50
2019-03-13T11:18:54.659Z,18.40
2019-03-13T11:21:53.619Z,18.70
2019-03-13T11:25:10.370Z,18.60
2019-03-13T11:28:21.325Z,18.60
2019-03-13T11:31:23.425Z,18.50
2019-03-13T11:34:27.281Z,18.50
2019-03-13T11:37:52.906Z,18.50
2019-03-13T11:45:13.151Z,18.30
2019-03-13T11:48:13.707Z,18.30
2019-03-13T11:51:21.387Z,18.60
2019-03-13T11:54:31.548Z,18.80
2019-03-13T11:57:42.393Z,18.70
2019-03-13T12:00:45.195Z,19.00
2019-03-13T12:03:49.542Z,18.80
2019-03-13T12:10:08.555Z,18.70
2019-03-13T12:13:20.329Z,18.50
2019-03-13T12:16:34.371Z,18.50
2019-03-13T12:19:44.060Z,18.40
2019-03-13T12:22:48.231Z,18.50
2019-03-13T12:25:46.964Z,18.50
2019-03-13T12:28:56.146Z,18.40
2019-03-13T12:32:14.856Z,18.30
2019-03-13T12:35:20.715Z,18.30
2019-03-13T12:38:34.394Z,18.30
2019-03-13T12:41:38.579Z,18.20
2019-03-13T12:44:56.353Z,18.30
2019-03-13T12:48:01.497Z,18.30
2019-03-13T12:51:25.754Z,18.30
2019-03-13T12:54:41.362Z,18.30
2019-03-13T12:58:18.501Z,18.30
2019-03-13T13:01:28.358Z,18.30
2019-03-13T13:04:31.916Z,18.20
2019-03-13T13:07:53.434Z,18.20
2019-03-13T13:11:09.750Z,18.40
2019-03-13T13:14:44.981Z,18.20
2019-03-13T13:17:56.782Z,18.60
2019-03-13T13:21:03.621Z,18.30
2019-03-13T13:23:58.799Z,18.30
2019-03-13T13:26:58.603Z,18.20
2019-03-13T13:29:51.537Z,18.20
2019-03-13T13:32:49.673Z,18.10
2019-03-13T13:35:50.646Z,18.10
2019-03-13T13:39:19.166Z,17.90
2019-03-13T13:42:20.690Z,18.00
2019-03-13T13:45:18.282Z,18.00
2019-03-13T13:48:20.937Z,18.10
2019-03-13T13:51:28.898Z,18.10
2019-03-13T13:54:47.923Z,18.10
2019-03-13T13:58:07.230Z,18.10
2019-03-13T14:01:01.234Z,18.00
2019-03-13T14:04:02.247Z,18.00
2019-03-13T14:07:20.298Z,17.90
2019-03-13T14:10:11.608Z,17.90
2019-03-13T14:13:15.773Z,17.90
2019-03-13T14:16:11.153Z,17.90
2019-03-13T14:19:27.932Z,17.90
2019-03-13T14:22:35.794Z,17.90
2019-03-13T14:25:29.303Z,17.90
2019-03-13T14:28:54.476Z,17.90
2019-03-13T14:31:46.613Z,18.00
2019-03-13T14:34:57.085Z,18.00
2019-03-13T14:38:01.408Z,18.00
2019-03-13T14:40:58.070Z,18.00
2019-03-13T14:44:07.281Z,18.00
2019-03-13T14:47:39.082Z,17.90
2019-03-13T14:53:53.989Z,18.10
2019-03-13T14:56:58.656Z,18.00
2019-03-13T15:00:34.519Z,17.90
2019-03-13T15:03:52.552Z,17.90
2019-03-13T15:07:03.402Z,17.90
2019-03-13T15:10:17.995Z,18.30
2019-03-13T15:13:26.739Z,18.30
2019-03-13T15:16:41.832Z,18.70
2019-03-13T15:19:57.963Z,18.50
2019-03-13T15:23:15.989Z,18.40
2019-03-13T15:26:29.840Z,18.20
2019-03-13T15:29:33.993Z,18.10
2019-03-13T15:32:35.048Z,17.90
2019-03-13T15:35:56.795Z,17.90
2019-03-13T15:39:44.095Z,17.90
2019-03-13T15:43:12.723Z,17.80
2019-03-13T15:46:36.247Z,17.70
2019-03-13T15:49:30.006Z,17.70
2019-03-13T15:53:05.657Z,17.70
2019-03-13T15:56:31.761Z,18.00
2019-03-13T15:59:47.013Z,17.80
2019-03-13T16:02:50.667Z,17.80
2019-03-13T16:05:55.822Z,17.80
2019-03-13T16:08:49.770Z,17.80
2019-03-13T16:11:58.181Z,17.80
2019-03-13T16:14:52.676Z,17.70
2019-03-13T16:18:09.774Z,17.70
2019-03-13T16:21:12.116Z,17.70
2019-03-13T16:24:17.974Z,17.70
2019-03-13T16:27:17.139Z,17.70
2019-03-13T16:30:33.345Z,17.70
2019-03-13T16:33:27.918Z,17.80
2019-03-13T16:36:30.541Z,18.00
2019-03-13T16:39:34.530Z,17.90
2019-03-13T16:42:23.542Z,17.80
2019-03-13T16:45:11.249Z,17.80
2019-03-13T16:47:51.714Z,17.80
2019-03-13T16:50:39.087Z,17.70
2019-03-13T16:53:19.898Z,17.70
2019-03-13T16:56:19.507Z,17.70
2019-03-13T16:59:08.904Z,17.60
2019-03-13T17:02:02.480Z,17.60
2019-03-13T17:04:47.702Z,17.70
2019-03-13T17:07:28.436Z,17.70
2019-03-13T17:10:13.690Z,17.70
2019-03-13T17:13:08.551Z,17.70
2019-03-13T17:15:52.130Z,17.70
2019-03-13T17:18:42.296Z,18.10
2019-03-13T17:21:25.859Z,17.90
2019-03-13T17:24:11.612Z,17.80
2019-03-13T17:27:02.698Z,17.80
2019-03-13T17:29:47.417Z,17.80
2019-03-13T17:32:33.580Z,17.80
2019-03-13T17:35:18.052Z,17.70
2019-03-13T17:38:14.269Z,17.70
2019-03-13T17:41:05.514Z,17.70
2019-03-13T17:43:56.091Z,17.60
2019-03-13T17:46:51.748Z,17.60
2019-03-13T17:49:40.893Z,17.60
2019-03-13T17:55:26.510Z,17.60
2019-03-13T17:58:09.189Z,17.70
2019-03-13T18:00:58.762Z,17.70
2019-03-13T18:03:44.053Z,17.60
2019-03-13T18:06:28.642Z,17.60
2019-03-13T18:12:13.138Z,17.60
2019-03-13T18:14:55.531Z,17.60
2019-03-13T18:17:49.350Z,17.60
2019-03-13T18:20:34.767Z,17.60
2019-03-13T18:23:20.848Z,17.60
2019-03-13T18:25:59.574Z,17.60
2019-03-13T18:28:37.933Z,17.60
2019-03-13T18:31:20.674Z,17.60
2019-03-13T18:34:10.458Z,17.60
2019-03-13T18:37:00.352Z,17.60
2019-03-13T18:39:44.234Z,17.60
2019-03-13T18:42:32.676Z,17.60
2019-03-13T18:45:14.515Z,17.60
2019-03-13T18:47:54.726Z,17.60
2019-03-13T18:50:46.136Z,17.50
2019-03-13T18:53:25.464Z,17.50
2019-03-13T18:56:03.776Z,17.50
2019-03-13T18:58:45.404Z,17.50
2019-03-13T19:01:31.955Z,17.50
2019-03-13T19:04:15.739Z,17.50
2019-03-13T19:07:00.152Z,17.60
2019-03-13T19:09:39.892Z,17.50
2019-03-13T19:12:28.403Z,17.50
2019-03-13T19:15:07.476Z,17.40
2019-03-13T19:17:52.855Z,17.40
2019-03-13T19:20:33.553Z,17.50
2019-03-13T19:23:17.681Z,17.80
2019-03-13T19:26:05.021Z,17.70
2019-03-13T19:28:51.515Z,17.60
2019-03-13T19:31:35.500Z,17.60
2019-03-13T19:34:19.607Z,17.50
2019-03-13T19:37:02.072Z,17.50
2019-03-13T19:39:43.327Z,17.50
2019-03-13T19:42:27.561Z,17.50
2019-03-13T19:45:10.775Z,17.50
2019-03-13T19:47:49.877Z,17.50
2019-03-13T19:50:30.545Z,17.50
2019-03-13T19:53:10.969Z,17.40
2019-03-13T19:55:54.051Z,17.40
2019-03-13T19:58:39.509Z,17.40
2019-03-13T20:01:24.364Z,17.40
2019-03-13T20:04:07.561Z,17.50
2019-03-13T20:06:48.506Z,17.40
2019-03-13T20:09:30.633Z,17.40
2019-03-13T20:12:13.999Z,17.50
2019-03-13T20:14:55.479Z,17.40
2019-03-13T20:17:37.631Z,17.50
2019-03-13T20:20:23.121Z,17.40
2019-03-13T20:23:07.205Z,17.40
2019-03-13T20:25:50.396Z,17.40
2019-03-13T20:28:30.253Z,17.40
2019-03-13T20:31:09.868Z,17.40
2019-03-13T20:33:53.793Z,17.40
2019-03-13T20:36:33.982Z,17.40
2019-03-13T20:39:13.626Z,17.40
2019-03-13T20:41:55.897Z,17.40
2019-03-13T20:44:39.683Z,17.40
2019-03-13T20:47:25.913Z,17.50
2019-03-13T20:50:13.975Z,17.50
2019-03-13T20:52:56.116Z,17.40
2019-03-13T20:55:38.767Z,17.40
2019-03-13T20:58:19.433Z,17.40
2019-03-13T21:01:02.825Z,17.40
2019-03-13T21:03:46.737Z,17.30
2019-03-13T21:06:29.571Z,17.30
2019-03-13T21:09:14.827Z,17.30
2019-03-13T21:11:55.251Z,17.30
2019-03-13T21:14:38.600Z,17.20
2019-03-13T21:17:18.667Z,17.20
2019-03-13T21:20:02.496Z,17.20
2019-03-13T21:22:42.728Z,17.30
2019-03-13T21:25:22.096Z,17.20
2019-03-13T21:28:02.584Z,17.20
2019-03-13T21:30:47.977Z,17.40
2019-03-13T21:33:28.918Z,17.30
2019-03-13T21:36:10.083Z,17.30
2019-03-13T21:38:57.989Z,17.30
2019-03-13T21:41:39.689Z,17.30
2019-03-13T21:44:22.792Z,17.20
2019-03-13T21:47:05.157Z,17.20
2019-03-13T21:49:47.894Z,17.20
2019-03-13T21:52:30.657Z,17.10
2019-03-13T21:55:08.778Z,17.20
2019-03-13T21:57:52.263Z,17.10
2019-03-13T22:00:32.041Z,17.10
2019-03-13T22:03:11.748Z,17.10
2019-03-13T22:05:54.398Z,17.10
2019-03-13T22:08:35.628Z,17.10
2019-03-13T22:11:18.877Z,17.10
2019-03-13T22:13:59.381Z,17.10
2019-03-13T22:16:40.023Z,17.50
2019-03-13T22:19:21.563Z,17.40
2019-03-13T22:22:05.450Z,17.30
2019-03-13T22:24:51.109Z,17.30
2019-03-13T22:27:32.594Z,17.30
2019-03-13T22:30:20.681Z,17.20
2019-03-13T22:33:00.699Z,17.20
2019-03-13T22:35:46.668Z,17.30
2019-03-13T22:38:28.203Z,17.10
2019-03-13T22:41:10.782Z,17.10
2019-03-13T22:43:56.612Z,17.10
2019-03-13T22:46:39.392Z,17.10
2019-03-13T22:49:23.217Z,17.10
2019-03-13T22:52:04.988Z,17.10
2019-03-13T22:54:48.563Z,17.30
2019-03-13T22:57:30.983Z,17.20
2019-03-13T23:00:12.637Z,17.40
2019-03-13T23:02:59.018Z,17.30
2019-03-13T23:05:45.150Z,17.30
2019-03-13T23:08:30.005Z,17.20
2019-03-13T23:11:09.414Z,17.20
2019-03-13T23:13:50.485Z,17.10
2019-03-13T23:16:29.855Z,17.10
2019-03-13T23:19:18.612Z,17.10
2019-03-13T23:22:00.988Z,17.20
2019-03-13T23:24:44.981Z,17.20
2019-03-13T23:27:26.657Z,17.10
2019-03-13T23:30:07.883Z,17.10
2019-03-13T23:32:54.988Z,17.10
2019-03-13T23:35:42.027Z,17.20
2019-03-13T23:38:24.670Z,17.30
2019-03-13T23:41:07.542Z,17.20
2019-03-13T23:43:53.681Z,17.30
2019-03-13T23:46:43.382Z,17.50
2019-03-13T23:49:22.131Z,17.50
2019-03-13T23:52:05.298Z,17.60
2019-03-13T23:54:44.883Z,17.60
2019-03-13T23:57:29.377Z,17.60
